This is the latest recevied weather packets stored in our database for station/object KG2V. If no packets are shown the sender has not sent any weather packets the latest 1 day(s).
| Time | Temp. | Humidity | Pressure | Rain* | Wind** | Luminosity | Snow |
|---|---|---|---|---|---|---|---|
| 1778021015 | 8.89° C | 91% | 1004.5 hPa | 1.27 mm | 0 m/s | 17 W/m² | - |
| 1778020711 | 9.44° C | 90% | 1004.4 hPa | 1.78 mm | 0.45 m/s, 137° | 19 W/m² | - |
| 1778020409 | 9.44° C | 91% | 1004.2 hPa | 1.78 mm | 0 m/s | 26 W/m² | - |
| 1778020104 | 9.44° C | 90% | 1004.8 hPa | 1.78 mm | 0.45 m/s, 75° | 29 W/m² | - |
| 1778019800 | 9.44° C | 90% | 1004.5 hPa | 0 mm | 0.45 m/s, 167° | 28 W/m² | - |
| 1778019498 | 10° C | 90% | 1004.3 hPa | 0 mm | 0 m/s | 34 W/m² | - |
| 1778019194 | 10° C | 89% | 1004.5 hPa | 1.27 mm | 0 m/s | 35 W/m² | - |
| 1778018892 | 10° C | 88% | 1004.2 hPa | 3.05 mm | 0.89 m/s, 244° | 38 W/m² | - |
| 1778018588 | 10.56° C | 89% | 1004.5 hPa | 3.05 mm | 0.45 m/s, 150° | 37 W/m² | - |
| 1778018287 | 11.11° C | 90% | 1004.5 hPa | 1.27 mm | 0.89 m/s, 209° | 30 W/m² | - |
| 1778017984 | 11.67° C | 88% | 1003.9 hPa | 1.78 mm | 0.89 m/s, 4° | 21 W/m² | - |
| 1778017682 | 12.22° C | 89% | 1003.8 hPa | 1.78 mm | 0.45 m/s, 159° | 18 W/m² | - |
| 1778017379 | 12.78° C | 86% | 1003.7 hPa | 0 mm | 0.89 m/s, 250° | 19 W/m² | - |
| 1778017076 | 13.89° C | 84% | 1003.3 hPa | 0 mm | 1.34 m/s, 212° | 12 W/m² | - |
| 1778016774 | 15.56° C | 77% | 1003.2 hPa | 0 mm | 1.34 m/s, 17° | 6 W/m² | - |
| 1778016469 | 16.11° C | 76% | 1002.8 hPa | 0 mm | 0.45 m/s, 184° | 9 W/m² | - |
| 1778016167 | 16.11° C | 76% | 1002.5 hPa | 0 mm | 0.89 m/s, 257° | 26 W/m² | - |
| 1778015864 | 16.67° C | 74% | 1002.1 hPa | 0 mm | 0.89 m/s, 251° | 71 W/m² | - |
| 1778015561 | 16.67° C | 73% | 1001.8 hPa | 0 mm | 1.79 m/s, 262° | 92 W/m² | - |
| 1778015257 | 16.67° C | 72% | 1001.8 hPa | 0 mm | 1.34 m/s, 230° | 136 W/m² | - |
| 1778014954 | 17.22° C | 73% | 1001.7 hPa | 0 mm | 1.79 m/s, 224° | 163 W/m² | - |
| 1778014652 | 17.22° C | 73% | 1001.7 hPa | 0 mm | 1.79 m/s, 251° | 162 W/m² | - |
| 1778014350 | 17.22° C | 72% | 1001.9 hPa | 0 mm | 1.79 m/s, 28° | 141 W/m² | - |
| 1778014046 | 17.22° C | 71% | 1002.1 hPa | 0 mm | 1.79 m/s, 249° | 96 W/m² | - |
| 1778013744 | 17.22° C | 71% | 1001.8 hPa | 0 mm | 1.79 m/s, 211° | 81 W/m² | - |
* Rain latest hour (hover to see other rain measurements)
** Current wind speed in m/s (hover to see current wind gust speed)